createdAt,value
2019-04-03T00:01:34.353Z,55.48
2019-04-03T00:04:16.370Z,55.61
2019-04-03T00:10:02.402Z,53.70
2019-04-03T00:12:58.859Z,55.03
2019-04-03T00:15:29.840Z,56.79
2019-04-03T00:20:52.982Z,55.20
2019-04-03T00:23:29.846Z,53.97
2019-04-03T00:26:02.303Z,53.11
2019-04-03T00:38:04.599Z,54.24
2019-04-03T00:41:03.003Z,53.82
2019-04-03T00:46:44.202Z,55.28
2019-04-03T00:49:45.143Z,54.84
2019-04-03T00:54:38.739Z,52.12
2019-04-03T00:57:15.923Z,53.83
2019-04-03T01:02:55.087Z,52.04
2019-04-03T01:08:19.062Z,52.29
2019-04-03T01:16:17.371Z,52.15
2019-04-03T01:19:07.474Z,53.00
2019-04-03T01:30:13.497Z,55.11
2019-04-03T01:32:50.274Z,53.75
2019-04-03T01:38:46.325Z,53.68
2019-04-03T01:41:21.797Z,53.12
2019-04-03T01:46:50.784Z,52.81
2019-04-03T01:49:18.745Z,52.85
2019-04-03T01:52:08.530Z,52.62
2019-04-03T01:54:43.797Z,54.13
2019-04-03T01:57:16.084Z,53.18
2019-04-03T01:59:48.622Z,53.71
2019-04-03T02:02:27.052Z,54.36
2019-04-03T02:05:17.214Z,54.03
2019-04-03T02:07:49.159Z,55.14
2019-04-03T02:10:33.469Z,54.21
2019-04-03T02:16:31.941Z,55.09
2019-04-03T02:22:43.407Z,54.92
2019-04-03T02:24:48.261Z,55.23
2019-04-03T02:30:05.662Z,57.23
2019-04-03T02:55:43.128Z,58.11
2019-04-03T03:01:05.669Z,58.84
2019-04-03T03:03:30.631Z,58.48
2019-04-03T03:06:00.667Z,56.48
2019-04-03T03:08:28.021Z,58.13
2019-04-03T03:10:56.442Z,58.35
2019-04-03T03:13:33.691Z,59.75
2019-04-03T03:16:00.688Z,57.99
2019-04-03T03:18:28.724Z,60.12
2019-04-03T03:23:57.899Z,59.15
2019-04-03T03:26:26.465Z,60.05
2019-04-03T03:28:54.310Z,58.76
2019-04-03T03:31:44.554Z,60.96
2019-04-03T03:33:52.995Z,61.57
2019-04-03T03:36:24.817Z,62.80
2019-04-03T03:38:51.313Z,62.16
2019-04-03T03:41:29.767Z,58.45
2019-04-03T03:43:57.597Z,59.96
2019-04-03T03:46:27.839Z,60.48
2019-04-03T03:48:55.883Z,60.96
2019-04-03T03:51:30.170Z,61.78
2019-04-03T03:53:58.770Z,62.60
2019-04-03T03:56:31.238Z,60.84
2019-04-03T03:58:57.230Z,61.81
2019-04-03T04:01:25.427Z,58.51
2019-04-03T04:03:57.913Z,58.86
2019-04-03T04:06:35.897Z,61.06
2019-04-03T04:09:04.960Z,60.30
2019-04-03T04:11:38.363Z,62.56
2019-04-03T04:14:23.912Z,62.79
2019-04-03T04:16:59.067Z,63.07
2019-04-03T04:19:32.535Z,61.27
2019-04-03T04:22:16.754Z,62.28
2019-04-03T04:24:33.088Z,63.11
2019-04-03T04:27:03.206Z,63.74
2019-04-03T04:29:37.261Z,63.20
2019-04-03T04:32:05.885Z,63.53
2019-04-03T04:34:35.255Z,64.34
2019-04-03T04:37:06.041Z,61.81
2019-04-03T04:39:34.049Z,62.36
2019-04-03T04:42:04.673Z,62.49
2019-04-03T04:44:33.541Z,64.69
2019-04-03T04:47:10.036Z,64.71
2019-04-03T04:49:41.216Z,65.01
2019-04-03T04:52:09.219Z,64.43
2019-04-03T04:54:43.168Z,64.85
2019-04-03T04:57:33.826Z,64.08
2019-04-03T04:59:58.768Z,63.60
2019-04-03T05:02:33.590Z,64.43
2019-04-03T05:05:09.258Z,64.33
2019-04-03T05:07:47.979Z,63.34
2019-04-03T05:10:23.333Z,65.90
2019-04-03T05:15:57.421Z,65.33
2019-04-03T05:18:38.721Z,64.75
2019-04-03T05:28:01.147Z,64.69
2019-04-03T05:29:58.585Z,66.11
2019-04-03T05:35:24.898Z,66.87
2019-04-03T05:40:54.717Z,66.73
2019-04-03T05:43:35.772Z,68.04
2019-04-03T05:46:07.854Z,69.09
2019-04-03T05:48:38.420Z,68.62
2019-04-03T05:51:14.160Z,69.15
2019-04-03T05:59:24.322Z,68.92
2019-04-03T06:02:22.975Z,68.40
2019-04-03T06:14:52.106Z,68.16
2019-04-03T06:23:29.736Z,67.46
2019-04-03T06:26:12.257Z,67.71
2019-04-03T06:31:29.869Z,68.61
2019-04-03T06:37:03.010Z,69.17
2019-04-03T08:23:46.705Z,62.79
2019-04-03T08:33:26.558Z,61.73
2019-04-03T08:36:26.463Z,63.31
2019-04-03T08:58:09.046Z,62.50
2019-04-03T10:16:06.149Z,63.53
2019-04-03T14:10:38.678Z,58.58
2019-04-03T15:13:03.969Z,59.05
2019-04-03T15:47:49.983Z,64.50
2019-04-03T15:53:48.015Z,64.97
2019-04-03T15:56:29.035Z,65.88
2019-04-03T15:59:20.883Z,65.40
2019-04-03T16:18:10.569Z,65.26
2019-04-03T16:23:59.971Z,65.76
2019-04-03T16:27:17.352Z,69.10
2019-04-03T16:30:25.347Z,72.14
2019-04-03T16:36:17.694Z,65.83
2019-04-03T16:39:21.643Z,66.08
2019-04-03T16:42:17.104Z,69.67
2019-04-03T16:44:42.929Z,71.97
2019-04-03T16:47:27.680Z,69.44
2019-04-03T16:50:00.356Z,68.25
2019-04-03T16:53:09.154Z,71.53
2019-04-03T16:56:11.817Z,71.62
2019-04-03T16:59:07.296Z,70.98
2019-04-03T17:01:45.609Z,71.16
2019-04-03T17:04:37.670Z,72.34
2019-04-03T17:07:13.161Z,73.46
2019-04-03T17:09:53.956Z,73.16
2019-04-03T17:15:14.302Z,73.13
2019-04-03T17:17:49.020Z,72.33
2019-04-03T17:20:22.602Z,75.02
2019-04-03T17:22:55.283Z,74.31
2019-04-03T17:25:26.964Z,73.10
2019-04-03T17:27:59.785Z,68.68
2019-04-03T17:30:41.459Z,72.98
2019-04-03T17:33:47.466Z,72.28
2019-04-03T17:42:25.808Z,74.21
2019-04-03T17:45:25.512Z,72.49
2019-04-03T17:50:57.551Z,67.85
2019-04-03T17:57:09.059Z,73.08
2019-04-03T18:00:42.513Z,67.38
2019-04-03T18:04:09.405Z,66.58
2019-04-03T18:07:00.929Z,71.15
2019-04-03T18:12:45.682Z,66.56
2019-04-03T18:15:37.116Z,65.24
2019-04-03T18:18:35.465Z,68.78
2019-04-03T18:23:58.557Z,69.11
2019-04-03T18:26:30.454Z,67.74
2019-04-03T18:38:42.355Z,66.71
2019-04-03T18:41:18.411Z,66.96
2019-04-03T18:44:41.176Z,66.43
2019-04-03T18:53:40.665Z,67.80
2019-04-03T18:56:16.957Z,66.77
2019-04-03T19:02:14.870Z,66.93
2019-04-03T19:50:40.306Z,71.32
2019-04-03T19:56:47.134Z,76.11
2019-04-03T20:19:22.505Z,77.89
2019-04-03T20:39:59.924Z,75.96
2019-04-03T20:55:27.394Z,73.65
2019-04-03T20:58:30.714Z,75.17
2019-04-03T21:01:14.102Z,75.74
2019-04-03T21:11:06.679Z,73.08
2019-04-03T21:23:52.511Z,76.03
2019-04-03T21:24:35.916Z,73.55
2019-04-03T21:26:32.174Z,75.15
2019-04-03T21:29:33.401Z,71.78
2019-04-03T21:54:36.919Z,74.15
2019-04-03T21:57:32.868Z,75.36
2019-04-03T22:19:35.828Z,77.67
2019-04-03T22:22:06.998Z,75.48
2019-04-03T22:24:44.319Z,74.80
2019-04-03T22:27:16.077Z,75.43
2019-04-03T22:29:45.154Z,76.52
2019-04-03T22:32:29.766Z,75.23
2019-04-03T22:35:01.022Z,76.14
2019-04-03T22:40:19.544Z,74.58
2019-04-03T22:43:09.839Z,76.28
2019-04-03T22:45:45.528Z,77.89
2019-04-03T22:48:14.584Z,79.46
2019-04-03T22:50:45.831Z,77.88
2019-04-03T22:53:18.231Z,77.31
2019-04-03T22:56:00.643Z,76.32
2019-04-03T22:58:31.985Z,74.54
2019-04-03T23:01:10.421Z,76.87
2019-04-03T23:03:50.062Z,76.55
2019-04-03T23:09:20.002Z,74.88
2019-04-03T23:11:58.305Z,75.51
2019-04-03T23:14:38.223Z,75.89
2019-04-03T23:17:04.745Z,76.08
2019-04-03T23:19:33.208Z,77.48
2019-04-03T23:24:52.017Z,73.68
2019-04-03T23:27:21.143Z,75.05
2019-04-03T23:29:51.558Z,73.10
2019-04-03T23:32:46.498Z,75.34
2019-04-03T23:35:37.020Z,75.98
2019-04-03T23:38:08.678Z,75.12
2019-04-03T23:40:41.924Z,77.64
2019-04-03T23:43:10.497Z,76.60
2019-04-03T23:45:39.334Z,75.75
2019-04-03T23:48:08.051Z,75.73
2019-04-03T23:53:23.044Z,75.96
2019-04-03T23:55:57.958Z,77.14
2019-04-03T23:58:26.855Z,78.38
